sensor_id;sensor_type;location;lat;lon;timestamp;pressure;altitude;pressure_sealevel;temperature;humidity
76746;BME280;65671;49.976;20.038;2023-06-26T00:01:57;98007.50;;;15.89;89.40
76746;BME280;65671;49.976;20.038;2023-06-26T00:04:22;98011.75;;;15.74;91.54
76746;BME280;65671;49.976;20.038;2023-06-26T00:06:48;98012.78;;;15.80;89.87
76746;BME280;65671;49.976;20.038;2023-06-26T00:09:13;98016.38;;;15.93;89.79
76746;BME280;65671;49.976;20.038;2023-06-26T00:11:39;98013.22;;;15.78;90.27
76746;BME280;65671;49.976;20.038;2023-06-26T00:14:04;98013.41;;;15.87;89.81
76746;BME280;65671;49.976;20.038;2023-06-26T00:16:30;98008.72;;;15.88;88.41
76746;BME280;65671;49.976;20.038;2023-06-26T00:18:56;98005.03;;;15.78;90.34
76746;BME280;65671;49.976;20.038;2023-06-26T00:21:21;98009.13;;;15.70;91.29
76746;BME280;65671;49.976;20.038;2023-06-26T00:23:47;98012.84;;;15.60;92.25
76746;BME280;65671;49.976;20.038;2023-06-26T00:26:13;98011.31;;;15.59;91.88
76746;BME280;65671;49.976;20.038;2023-06-26T00:28:38;98006.97;;;15.61;91.51
76746;BME280;65671;49.976;20.038;2023-06-26T00:31:04;98008.31;;;15.53;92.49
76746;BME280;65671;49.976;20.038;2023-06-26T00:33:30;98011.13;;;15.50;93.19
76746;BME280;65671;49.976;20.038;2023-06-26T00:35:55;98012.16;;;15.56;92.02
76746;BME280;65671;49.976;20.038;2023-06-26T00:38:21;98006.00;;;15.52;92.33
76746;BME280;65671;49.976;20.038;2023-06-26T00:40:46;98008.81;;;15.48;92.84
76746;BME280;65671;49.976;20.038;2023-06-26T00:43:12;98005.25;;;15.51;91.73
76746;BME280;65671;49.976;20.038;2023-06-26T00:45:37;98007.19;;;15.51;91.58
76746;BME280;65671;49.976;20.038;2023-06-26T00:48:03;98001.25;;;15.72;90.23
76746;BME280;65671;49.976;20.038;2023-06-26T00:50:29;98002.81;;;15.73;90.47
76746;BME280;65671;49.976;20.038;2023-06-26T00:52:55;98001.84;;;15.80;89.62
76746;BME280;65671;49.976;20.038;2023-06-26T00:55:26;98000.59;;;15.84;89.06
76746;BME280;65671;49.976;20.038;2023-06-26T00:57:52;97997.63;;;15.79;89.89
76746;BME280;65671;49.976;20.038;2023-06-26T01:00:18;98002.97;;;15.66;90.41
76746;BME280;65671;49.976;20.038;2023-06-26T01:02:43;98004.25;;;15.61;90.49
76746;BME280;65671;49.976;20.038;2023-06-26T01:05:09;98006.88;;;15.65;90.55
76746;BME280;65671;49.976;20.038;2023-06-26T01:07:38;98003.66;;;15.70;89.73
76746;BME280;65671;49.976;20.038;2023-06-26T01:10:05;98003.22;;;15.72;89.29
76746;BME280;65671;49.976;20.038;2023-06-26T01:12:32;97999.72;;;15.71;89.82
76746;BME280;65671;49.976;20.038;2023-06-26T01:14:59;98004.19;;;15.81;89.26
76746;BME280;65671;49.976;20.038;2023-06-26T01:17:26;97996.50;;;15.76;89.66
76746;BME280;65671;49.976;20.038;2023-06-26T01:19:58;97993.34;;;15.78;89.64
76746;BME280;65671;49.976;20.038;2023-06-26T01:25:50;97989.66;;;15.68;90.45
76746;BME280;65671;49.976;20.038;2023-06-26T01:28:20;97990.75;;;15.71;90.06
76746;BME280;65671;49.976;20.038;2023-06-26T01:30:46;97987.34;;;15.67;90.12
76746;BME280;65671;49.976;20.038;2023-06-26T01:33:13;97974.38;;;15.54;90.27
76746;BME280;65671;49.976;20.038;2023-06-26T01:35:39;97983.16;;;15.62;90.53
76746;BME280;65671;49.976;20.038;2023-06-26T01:38:31;97984.38;;;15.61;90.28
76746;BME280;65671;49.976;20.038;2023-06-26T01:40:57;97976.94;;;15.61;90.22
76746;BME280;65671;49.976;20.038;2023-06-26T01:44:01;97979.06;;;15.54;90.99
76746;BME280;65671;49.976;20.038;2023-06-26T01:52:07;97977.69;;;15.62;89.90
76746;BME280;65671;49.976;20.038;2023-06-26T01:54:54;97975.28;;;15.48;91.19
76746;BME280;65671;49.976;20.038;2023-06-26T01:57:21;97981.53;;;15.48;90.58
76746;BME280;65671;49.976;20.038;2023-06-26T01:59:48;97981.56;;;15.45;91.02
76746;BME280;65671;49.976;20.038;2023-06-26T02:02:15;97985.44;;;15.47;90.77
76746;BME280;65671;49.976;20.038;2023-06-26T02:04:41;97974.41;;;15.35;91.55
76746;BME280;65671;49.976;20.038;2023-06-26T02:07:06;97975.06;;;15.39;90.99
76746;BME280;65671;49.976;20.038;2023-06-26T02:09:32;97974.31;;;15.38;91.05
76746;BME280;65671;49.976;20.038;2023-06-26T02:11:57;97967.06;;;15.32;90.93
76746;BME280;65671;49.976;20.038;2023-06-26T02:14:23;97973.19;;;15.36;90.84
76746;BME280;65671;49.976;20.038;2023-06-26T02:16:49;97975.28;;;15.48;90.20
76746;BME280;65671;49.976;20.038;2023-06-26T02:19:15;97962.06;;;15.46;90.34
76746;BME280;65671;49.976;20.038;2023-06-26T02:21:48;97964.41;;;15.44;90.04
76746;BME280;65671;49.976;20.038;2023-06-26T02:24:14;97960.13;;;15.47;89.84
76746;BME280;65671;49.976;20.038;2023-06-26T02:26:39;97971.38;;;15.49;89.40
76746;BME280;65671;49.976;20.038;2023-06-26T02:29:05;97969.00;;;15.51;89.56
76746;BME280;65671;49.976;20.038;2023-06-26T02:31:30;97969.88;;;15.44;90.04
76746;BME280;65671;49.976;20.038;2023-06-26T02:33:57;97965.59;;;15.47;89.93
76746;BME280;65671;49.976;20.038;2023-06-26T02:36:22;97965.28;;;15.41;89.97
76746;BME280;65671;49.976;20.038;2023-06-26T02:38:48;97965.38;;;15.38;90.17
76746;BME280;65671;49.976;20.038;2023-06-26T02:41:13;97966.88;;;15.39;89.74
76746;BME280;65671;49.976;20.038;2023-06-26T02:43:39;97966.56;;;15.37;90.31
76746;BME280;65671;49.976;20.038;2023-06-26T02:46:04;97969.88;;;15.28;90.26
76746;BME280;65671;49.976;20.038;2023-06-26T02:48:30;97975.31;;;15.28;90.89
76746;BME280;65671;49.976;20.038;2023-06-26T02:50:55;97972.94;;;15.30;90.75
76746;BME280;65671;49.976;20.038;2023-06-26T02:53:20;97970.72;;;15.25;90.79
76746;BME280;65671;49.976;20.038;2023-06-26T02:55:46;97966.09;;;15.22;90.76
76746;BME280;65671;49.976;20.038;2023-06-26T02:58:12;97971.56;;;15.22;91.31
76746;BME280;65671;49.976;20.038;2023-06-26T03:00:38;97975.31;;;15.28;90.60
76746;BME280;65671;49.976;20.038;2023-06-26T03:03:07;97976.44;;;15.31;90.64
76746;BME280;65671;49.976;20.038;2023-06-26T03:05:32;97975.06;;;15.23;90.83
76746;BME280;65671;49.976;20.038;2023-06-26T03:07:58;97973.50;;;15.22;91.22
76746;BME280;65671;49.976;20.038;2023-06-26T03:10:24;97972.81;;;15.18;91.33
76746;BME280;65671;49.976;20.038;2023-06-26T03:12:49;97974.00;;;15.17;91.80
76746;BME280;65671;49.976;20.038;2023-06-26T03:15:15;97978.69;;;15.16;91.75
76746;BME280;65671;49.976;20.038;2023-06-26T03:17:40;97970.91;;;15.15;91.42
76746;BME280;65671;49.976;20.038;2023-06-26T03:20:06;97969.34;;;14.97;92.61
76746;BME280;65671;49.976;20.038;2023-06-26T03:22:33;97972.25;;;15.06;92.17
76746;BME280;65671;49.976;20.038;2023-06-26T03:24:59;97964.72;;;14.94;92.82
76746;BME280;65671;49.976;20.038;2023-06-26T03:27:24;97976.59;;;15.04;93.01
76746;BME280;65671;49.976;20.038;2023-06-26T03:29:52;97968.09;;;15.02;92.67
76746;BME280;65671;49.976;20.038;2023-06-26T03:32:18;97973.09;;;15.03;92.47
76746;BME280;65671;49.976;20.038;2023-06-26T03:34:43;97973.38;;;15.09;92.66
76746;BME280;65671;49.976;20.038;2023-06-26T03:37:09;97978.41;;;15.11;92.20
76746;BME280;65671;49.976;20.038;2023-06-26T03:39:34;97976.09;;;15.09;92.27
76746;BME280;65671;49.976;20.038;2023-06-26T03:42:00;97973.16;;;15.20;91.18
76746;BME280;65671;49.976;20.038;2023-06-26T03:44:27;97972.66;;;15.25;91.38
76746;BME280;65671;49.976;20.038;2023-06-26T03:46:52;97977.84;;;15.19;91.31
76746;BME280;65671;49.976;20.038;2023-06-26T03:49:18;97983.34;;;15.35;90.65
76746;BME280;65671;49.976;20.038;2023-06-26T03:51:44;97980.69;;;15.32;90.87
76746;BME280;65671;49.976;20.038;2023-06-26T03:54:10;97986.44;;;15.37;91.00
76746;BME280;65671;49.976;20.038;2023-06-26T03:56:35;97982.72;;;15.47;90.43
76746;BME280;65671;49.976;20.038;2023-06-26T03:59:01;97984.03;;;15.39;90.73
76746;BME280;65671;49.976;20.038;2023-06-26T04:01:26;97978.56;;;15.39;90.98
76746;BME280;65671;49.976;20.038;2023-06-26T04:03:53;97990.97;;;15.44;91.48
76746;BME280;65671;49.976;20.038;2023-06-26T04:06:18;97987.69;;;15.52;91.08
76746;BME280;65671;49.976;20.038;2023-06-26T04:08:43;97990.59;;;15.61;90.28
76746;BME280;65671;49.976;20.038;2023-06-26T04:11:09;97995.47;;;15.70;90.33
76746;BME280;65671;49.976;20.038;2023-06-26T04:13:34;97988.63;;;15.62;90.11
76746;BME280;65671;49.976;20.038;2023-06-26T04:16:00;97983.25;;;15.75;90.58
76746;BME280;65671;49.976;20.038;2023-06-26T04:18:26;98000.56;;;15.68;90.98
76746;BME280;65671;49.976;20.038;2023-06-26T04:21:11;97992.16;;;15.79;90.59
76746;BME280;65671;49.976;20.038;2023-06-26T04:23:38;97991.28;;;15.82;90.22
76746;BME280;65671;49.976;20.038;2023-06-26T04:26:07;97996.81;;;15.94;90.64
76746;BME280;65671;49.976;20.038;2023-06-26T04:28:34;97984.47;;;15.90;90.64
76746;BME280;65671;49.976;20.038;2023-06-26T04:31:01;97992.66;;;16.06;89.97
76746;BME280;65671;49.976;20.038;2023-06-26T04:33:29;97988.66;;;16.27;90.34
76746;BME280;65671;49.976;20.038;2023-06-26T04:35:54;97990.31;;;16.37;89.43
76746;BME280;65671;49.976;20.038;2023-06-26T04:38:20;97995.78;;;16.37;88.83
76746;BME280;65671;49.976;20.038;2023-06-26T04:40:47;97991.34;;;16.59;88.90
76746;BME280;65671;49.976;20.038;2023-06-26T04:43:14;97987.41;;;16.60;88.72
76746;BME280;65671;49.976;20.038;2023-06-26T04:45:39;97992.44;;;16.61;87.76
76746;BME280;65671;49.976;20.038;2023-06-26T04:48:05;97994.94;;;16.85;87.21
76746;BME280;65671;49.976;20.038;2023-06-26T04:50:34;97992.44;;;16.90;86.28
76746;BME280;65671;49.976;20.038;2023-06-26T04:53:00;97996.03;;;16.87;87.68
76746;BME280;65671;49.976;20.038;2023-06-26T04:55:26;97991.38;;;17.13;88.79
76746;BME280;65671;49.976;20.038;2023-06-26T04:57:52;97993.94;;;17.20;86.14
76746;BME280;65671;49.976;20.038;2023-06-26T05:00:17;97997.66;;;17.26;85.52
76746;BME280;65671;49.976;20.038;2023-06-26T05:02:43;97995.38;;;17.37;85.51
76746;BME280;65671;49.976;20.038;2023-06-26T05:05:09;97993.84;;;17.49;85.14
76746;BME280;65671;49.976;20.038;2023-06-26T05:07:36;97996.59;;;17.49;84.98
76746;BME280;65671;49.976;20.038;2023-06-26T05:10:01;98002.75;;;17.78;83.69
76746;BME280;65671;49.976;20.038;2023-06-26T05:12:27;98003.31;;;17.73;84.04
76746;BME280;65671;49.976;20.038;2023-06-26T05:14:52;97990.16;;;17.80;83.87
76746;BME280;65671;49.976;20.038;2023-06-26T05:17:18;97995.31;;;17.91;82.15
76746;BME280;65671;49.976;20.038;2023-06-26T05:19:43;97988.31;;;17.90;83.06
76746;BME280;65671;49.976;20.038;2023-06-26T05:22:09;97995.53;;;18.09;81.32
76746;BME280;65671;49.976;20.038;2023-06-26T05:24:36;97992.44;;;18.07;81.13
76746;BME280;65671;49.976;20.038;2023-06-26T05:27:02;97992.19;;;18.27;80.24
76746;BME280;65671;49.976;20.038;2023-06-26T05:29:32;97995.38;;;18.25;80.81
76746;BME280;65671;49.976;20.038;2023-06-26T05:31:59;97994.56;;;18.37;81.25
76746;BME280;65671;49.976;20.038;2023-06-26T05:34:25;97990.94;;;18.40;80.85
76746;BME280;65671;49.976;20.038;2023-06-26T05:36:57;97998.84;;;18.38;79.66
76746;BME280;65671;49.976;20.038;2023-06-26T05:39:23;97989.94;;;18.47;79.13
76746;BME280;65671;49.976;20.038;2023-06-26T05:41:50;97995.09;;;18.58;78.87
76746;BME280;65671;49.976;20.038;2023-06-26T05:44:15;97997.47;;;18.68;78.74
76746;BME280;65671;49.976;20.038;2023-06-26T05:46:41;97989.09;;;18.72;79.28
76746;BME280;65671;49.976;20.038;2023-06-26T05:49:06;97992.38;;;19.01;80.07
76746;BME280;65671;49.976;20.038;2023-06-26T05:51:32;97993.91;;;19.02;79.42
76746;BME280;65671;49.976;20.038;2023-06-26T05:53:57;97998.31;;;19.21;74.67
76746;BME280;65671;49.976;20.038;2023-06-26T05:56:23;97993.13;;;19.23;76.45
76746;BME280;65671;49.976;20.038;2023-06-26T05:58:50;97997.13;;;19.31;76.32
76746;BME280;65671;49.976;20.038;2023-06-26T06:01:16;97992.59;;;19.37;73.67
76746;BME280;65671;49.976;20.038;2023-06-26T06:03:42;97995.41;;;19.46;74.40
76746;BME280;65671;49.976;20.038;2023-06-26T06:06:07;97998.78;;;19.51;73.84
76746;BME280;65671;49.976;20.038;2023-06-26T06:08:32;97985.88;;;19.60;74.52
76746;BME280;65671;49.976;20.038;2023-06-26T06:10:59;97989.09;;;19.68;74.39
76746;BME280;65671;49.976;20.038;2023-06-26T06:13:25;97991.28;;;19.82;73.51
76746;BME280;65671;49.976;20.038;2023-06-26T06:15:50;97988.47;;;20.03;73.94
76746;BME280;65671;49.976;20.038;2023-06-26T06:18:16;97992.22;;;19.88;71.93
76746;BME280;65671;49.976;20.038;2023-06-26T06:20:42;97996.88;;;20.18;72.01
76746;BME280;65671;49.976;20.038;2023-06-26T06:23:07;97997.72;;;20.28;72.68
76746;BME280;65671;49.976;20.038;2023-06-26T06:25:33;98003.94;;;20.28;72.56
76746;BME280;65671;49.976;20.038;2023-06-26T06:27:58;97999.09;;;20.41;70.14
76746;BME280;65671;49.976;20.038;2023-06-26T06:30:24;97997.13;;;20.42;71.99
76746;BME280;65671;49.976;20.038;2023-06-26T06:32:49;97986.56;;;20.68;71.63
76746;BME280;65671;49.976;20.038;2023-06-26T06:35:18;97993.00;;;20.83;74.82
76746;BME280;65671;49.976;20.038;2023-06-26T06:37:44;97991.47;;;20.82;71.74
76746;BME280;65671;49.976;20.038;2023-06-26T06:40:10;97988.41;;;20.89;67.73
76746;BME280;65671;49.976;20.038;2023-06-26T06:42:36;97993.00;;;20.74;69.93
76746;BME280;65671;49.976;20.038;2023-06-26T06:45:02;97995.59;;;20.86;67.56
76746;BME280;65671;49.976;20.038;2023-06-26T06:47:28;97986.88;;;20.88;68.26
76746;BME280;65671;49.976;20.038;2023-06-26T06:49:54;97994.19;;;21.00;67.45
76746;BME280;65671;49.976;20.038;2023-06-26T06:52:19;97994.66;;;20.98;65.68
76746;BME280;65671;49.976;20.038;2023-06-26T06:54:56;97991.59;;;20.96;69.63
76746;BME280;65671;49.976;20.038;2023-06-26T06:57:24;97999.25;;;21.01;68.56
76746;BME280;65671;49.976;20.038;2023-06-26T06:59:50;97993.13;;;21.06;67.65
76746;BME280;65671;49.976;20.038;2023-06-26T07:02:19;97991.91;;;21.17;67.92
76746;BME280;65671;49.976;20.038;2023-06-26T07:04:45;97998.66;;;21.16;63.92
76746;BME280;65671;49.976;20.038;2023-06-26T07:07:11;97997.53;;;21.40;65.93
76746;BME280;65671;49.976;20.038;2023-06-26T07:09:38;98000.72;;;21.48;64.91
76746;BME280;65671;49.976;20.038;2023-06-26T07:12:04;97996.25;;;21.50;64.62
76746;BME280;65671;49.976;20.038;2023-06-26T07:14:30;97998.03;;;21.72;69.29
76746;BME280;65671;49.976;20.038;2023-06-26T07:16:56;98000.47;;;21.79;65.93
76746;BME280;65671;49.976;20.038;2023-06-26T07:19:21;97993.34;;;21.96;65.37
76746;BME280;65671;49.976;20.038;2023-06-26T07:21:47;97987.47;;;22.03;66.77
76746;BME280;65671;49.976;20.038;2023-06-26T07:24:12;97996.28;;;21.83;63.75
76746;BME280;65671;49.976;20.038;2023-06-26T07:26:38;97996.78;;;21.82;64.19
76746;BME280;65671;49.976;20.038;2023-06-26T07:29:03;97998.47;;;21.70;65.85
76746;BME280;65671;49.976;20.038;2023-06-26T07:31:29;97985.94;;;22.11;63.86
76746;BME280;65671;49.976;20.038;2023-06-26T07:33:55;97989.69;;;22.22;67.75
76746;BME280;65671;49.976;20.038;2023-06-26T07:36:20;97993.94;;;22.23;61.26
76746;BME280;65671;49.976;20.038;2023-06-26T07:38:46;97990.03;;;22.15;58.82
76746;BME280;65671;49.976;20.038;2023-06-26T07:41:11;97987.16;;;22.10;61.03
76746;BME280;65671;49.976;20.038;2023-06-26T07:43:37;97986.38;;;22.33;59.89
76746;BME280;65671;49.976;20.038;2023-06-26T07:46:02;97989.38;;;22.44;58.24
76746;BME280;65671;49.976;20.038;2023-06-26T07:48:28;97991.44;;;22.35;57.96
76746;BME280;65671;49.976;20.038;2023-06-26T07:50:53;97982.03;;;22.41;60.03
76746;BME280;65671;49.976;20.038;2023-06-26T07:53:19;97987.19;;;22.72;62.50
76746;BME280;65671;49.976;20.038;2023-06-26T07:55:45;97993.09;;;22.79;59.81
76746;BME280;65671;49.976;20.038;2023-06-26T07:58:10;97996.28;;;22.87;62.12
76746;BME280;65671;49.976;20.038;2023-06-26T08:00:36;98002.34;;;22.76;59.47
76746;BME280;65671;49.976;20.038;2023-06-26T08:03:02;97987.84;;;23.05;60.27
76746;BME280;65671;49.976;20.038;2023-06-26T08:05:27;97985.72;;;23.15;54.56
76746;BME280;65671;49.976;20.038;2023-06-26T08:07:53;97989.44;;;23.26;56.07
76746;BME280;65671;49.976;20.038;2023-06-26T08:10:18;97987.16;;;23.10;56.33
76746;BME280;65671;49.976;20.038;2023-06-26T08:12:44;97988.75;;;22.88;54.13
76746;BME280;65671;49.976;20.038;2023-06-26T08:15:11;97983.34;;;23.08;56.24
76746;BME280;65671;49.976;20.038;2023-06-26T08:17:37;97981.22;;;23.41;57.76
76746;BME280;65671;49.976;20.038;2023-06-26T08:20:03;97985.00;;;23.29;54.26
76746;BME280;65671;49.976;20.038;2023-06-26T08:22:29;97979.66;;;23.11;53.27
76746;BME280;65671;49.976;20.038;2023-06-26T08:24:54;97978.69;;;23.28;58.10
76746;BME280;65671;49.976;20.038;2023-06-26T08:27:20;97982.69;;;23.27;50.38
76746;BME280;65671;49.976;20.038;2023-06-26T08:29:46;97979.75;;;23.46;54.18
76746;BME280;65671;49.976;20.038;2023-06-26T08:32:11;97987.81;;;23.78;54.50
76746;BME280;65671;49.976;20.038;2023-06-26T08:34:37;97976.91;;;23.55;52.74
76746;BME280;65671;49.976;20.038;2023-06-26T08:37:02;97971.63;;;23.57;52.78
76746;BME280;65671;49.976;20.038;2023-06-26T08:39:28;97970.66;;;23.74;57.12
76746;BME280;65671;49.976;20.038;2023-06-26T08:41:53;97988.94;;;23.86;48.69
76746;BME280;65671;49.976;20.038;2023-06-26T08:44:19;97985.34;;;23.37;48.52
76746;BME280;65671;49.976;20.038;2023-06-26T08:46:51;97973.53;;;23.36;48.19
76746;BME280;65671;49.976;20.038;2023-06-26T08:52:19;97974.50;;;23.62;47.22
76746;BME280;65671;49.976;20.038;2023-06-26T08:54:46;97964.00;;;24.01;51.02
76746;BME280;65671;49.976;20.038;2023-06-26T08:57:18;97971.59;;;24.06;54.20
76746;BME280;65671;49.976;20.038;2023-06-26T08:59:45;97967.44;;;24.31;47.08
76746;BME280;65671;49.976;20.038;2023-06-26T09:02:12;97971.06;;;23.67;46.77
76746;BME280;65671;49.976;20.038;2023-06-26T09:04:38;97963.66;;;23.44;47.99
76746;BME280;65671;49.976;20.038;2023-06-26T09:07:04;97961.31;;;23.72;48.92
76746;BME280;65671;49.976;20.038;2023-06-26T09:09:30;97970.50;;;23.63;46.95
76746;BME280;65671;49.976;20.038;2023-06-26T09:11:56;97967.03;;;23.68;46.02
76746;BME280;65671;49.976;20.038;2023-06-26T09:14:21;97960.94;;;23.79;46.49
76746;BME280;65671;49.976;20.038;2023-06-26T09:16:47;97963.84;;;23.90;47.13
76746;BME280;65671;49.976;20.038;2023-06-26T09:19:13;97965.03;;;24.04;43.77
76746;BME280;65671;49.976;20.038;2023-06-26T09:21:42;97971.41;;;23.75;44.87
76746;BME280;65671;49.976;20.038;2023-06-26T09:24:09;97951.09;;;24.13;47.84
76746;BME280;65671;49.976;20.038;2023-06-26T09:26:39;97964.50;;;24.00;45.52
76746;BME280;65671;49.976;20.038;2023-06-26T09:29:05;97961.63;;;24.49;45.27
76746;BME280;65671;49.976;20.038;2023-06-26T09:31:37;97958.28;;;24.65;46.75
76746;BME280;65671;49.976;20.038;2023-06-26T09:34:02;97960.63;;;24.92;46.12
76746;BME280;65671;49.976;20.038;2023-06-26T09:36:30;97943.44;;;24.42;47.57
76746;BME280;65671;49.976;20.038;2023-06-26T09:39:03;97952.38;;;24.32;46.43
76746;BME280;65671;49.976;20.038;2023-06-26T09:41:30;97951.00;;;23.87;48.79
76746;BME280;65671;49.976;20.038;2023-06-26T09:44:01;97953.69;;;23.81;45.76
76746;BME280;65671;49.976;20.038;2023-06-26T09:46:29;97942.31;;;24.55;45.35
76746;BME280;65671;49.976;20.038;2023-06-26T09:49:03;97949.25;;;24.65;44.34
76746;BME280;65671;49.976;20.038;2023-06-26T09:51:31;97950.34;;;24.53;45.12
76746;BME280;65671;49.976;20.038;2023-06-26T09:53:57;97953.91;;;24.99;43.85
76746;BME280;65671;49.976;20.038;2023-06-26T09:56:23;97954.84;;;25.47;45.53
76746;BME280;65671;49.976;20.038;2023-06-26T09:58:49;97953.28;;;25.41;42.53
76746;BME280;65671;49.976;20.038;2023-06-26T10:01:15;97950.03;;;25.17;41.06
76746;BME280;65671;49.976;20.038;2023-06-26T10:03:40;97952.88;;;24.96;45.64
76746;BME280;65671;49.976;20.038;2023-06-26T10:06:09;97945.03;;;24.49;44.17
76746;BME280;65671;49.976;20.038;2023-06-26T10:08:37;97946.25;;;24.08;46.17
76746;BME280;65671;49.976;20.038;2023-06-26T10:11:04;97936.06;;;23.99;49.76
76746;BME280;65671;49.976;20.038;2023-06-26T10:13:36;97937.13;;;24.42;47.61
76746;BME280;65671;49.976;20.038;2023-06-26T10:16:05;97933.44;;;24.71;48.66
76746;BME280;65671;49.976;20.038;2023-06-26T10:18:32;97932.84;;;25.38;48.25
76746;BME280;65671;49.976;20.038;2023-06-26T10:21:01;97924.81;;;25.46;45.24
76746;BME280;65671;49.976;20.038;2023-06-26T10:23:30;97921.38;;;25.93;45.60
76746;BME280;65671;49.976;20.038;2023-06-26T10:25:58;97918.13;;;26.00;42.88
76746;BME280;65671;49.976;20.038;2023-06-26T10:28:26;97913.50;;;26.29;44.23
76746;BME280;65671;49.976;20.038;2023-06-26T10:30:53;97909.09;;;26.76;45.67
76746;BME280;65671;49.976;20.038;2023-06-26T10:33:20;97910.41;;;26.86;46.56
76746;BME280;65671;49.976;20.038;2023-06-26T10:35:47;97903.31;;;26.90;50.92
76746;BME280;65671;49.976;20.038;2023-06-26T10:38:13;97906.75;;;26.52;47.67
76746;BME280;65671;49.976;20.038;2023-06-26T10:40:43;97911.91;;;25.37;43.84
76746;BME280;65671;49.976;20.038;2023-06-26T10:43:11;97913.09;;;24.74;43.95
76746;BME280;65671;49.976;20.038;2023-06-26T10:45:43;97903.50;;;24.75;42.98
76746;BME280;65671;49.976;20.038;2023-06-26T10:48:09;97904.94;;;24.65;46.83
76746;BME280;65671;49.976;20.038;2023-06-26T10:50:34;97904.06;;;24.33;47.59
76746;BME280;65671;49.976;20.038;2023-06-26T10:56:03;97908.94;;;24.18;47.65
76746;BME280;65671;49.976;20.038;2023-06-26T11:04:06;97901.31;;;24.13;52.56
76746;BME280;65671;49.976;20.038;2023-06-26T11:06:32;97903.91;;;25.14;50.92
76746;BME280;65671;49.976;20.038;2023-06-26T11:14:25;97899.50;;;26.06;46.02
76746;BME280;65671;49.976;20.038;2023-06-26T11:16:52;97898.97;;;26.02;42.68
76746;BME280;65671;49.976;20.038;2023-06-26T11:19:19;97898.56;;;26.21;46.89
76746;BME280;65671;49.976;20.038;2023-06-26T11:21:45;97903.63;;;26.28;43.07
76746;BME280;65671;49.976;20.038;2023-06-26T11:24:12;97885.69;;;26.18;41.48
76746;BME280;65671;49.976;20.038;2023-06-26T11:26:41;97884.63;;;26.85;44.44
76746;BME280;65671;49.976;20.038;2023-06-26T11:29:07;97890.63;;;26.61;42.02
76746;BME280;65671;49.976;20.038;2023-06-26T11:31:34;97891.13;;;26.60;45.13
76746;BME280;65671;49.976;20.038;2023-06-26T11:34:03;97885.31;;;26.52;40.86
76746;BME280;65671;49.976;20.038;2023-06-26T11:36:30;97892.72;;;25.34;44.77
76746;BME280;65671;49.976;20.038;2023-06-26T11:39:00;97900.41;;;25.19;47.24
76746;BME280;65671;49.976;20.038;2023-06-26T11:41:28;97900.69;;;24.69;45.12
76746;BME280;65671;49.976;20.038;2023-06-26T11:43:54;97899.78;;;24.32;46.45
76746;BME280;65671;49.976;20.038;2023-06-26T11:46:21;97906.00;;;24.27;47.99
76746;BME280;65671;49.976;20.038;2023-06-26T11:48:47;97894.28;;;24.12;47.50
76746;BME280;65671;49.976;20.038;2023-06-26T11:51:13;97895.56;;;24.16;46.94
76746;BME280;65671;49.976;20.038;2023-06-26T11:53:41;97897.50;;;24.10;47.38
76746;BME280;65671;49.976;20.038;2023-06-26T11:56:11;97899.81;;;24.12;47.57
76746;BME280;65671;49.976;20.038;2023-06-26T12:01:20;97892.44;;;24.09;54.39
76746;BME280;65671;49.976;20.038;2023-06-26T12:03:48;97881.88;;;24.99;48.46
76746;BME280;65671;49.976;20.038;2023-06-26T12:06:14;97880.91;;;25.70;44.63
76746;BME280;65671;49.976;20.038;2023-06-26T12:08:40;97881.91;;;25.73;44.67
76746;BME280;65671;49.976;20.038;2023-06-26T12:11:06;97877.63;;;25.72;45.66
76746;BME280;65671;49.976;20.038;2023-06-26T12:13:32;97870.09;;;25.78;42.88
76746;BME280;65671;49.976;20.038;2023-06-26T12:15:58;97865.06;;;26.35;44.23
76746;BME280;65671;49.976;20.038;2023-06-26T12:18:23;97870.31;;;26.22;42.07
76746;BME280;65671;49.976;20.038;2023-06-26T12:20:51;97864.31;;;26.46;44.81
76746;BME280;65671;49.976;20.038;2023-06-26T12:23:17;97865.63;;;26.56;44.27
76746;BME280;65671;49.976;20.038;2023-06-26T12:25:42;97861.88;;;27.26;45.02
76746;BME280;65671;49.976;20.038;2023-06-26T12:28:16;97858.34;;;27.20;40.78
76746;BME280;65671;49.976;20.038;2023-06-26T12:30:45;97855.34;;;27.06;43.13
76746;BME280;65671;49.976;20.038;2023-06-26T12:33:15;97860.31;;;26.63;41.21
76746;BME280;65671;49.976;20.038;2023-06-26T12:35:41;97850.19;;;26.44;37.82
76746;BME280;65671;49.976;20.038;2023-06-26T12:38:08;97840.84;;;26.47;38.53
76746;BME280;65671;49.976;20.038;2023-06-26T12:40:49;97844.66;;;26.55;40.97
76746;BME280;65671;49.976;20.038;2023-06-26T12:43:25;97847.78;;;27.07;43.66
76746;BME280;65671;49.976;20.038;2023-06-26T12:45:54;97839.69;;;26.92;40.36
76746;BME280;65671;49.976;20.038;2023-06-26T12:48:20;97842.22;;;26.03;39.46
76746;BME280;65671;49.976;20.038;2023-06-26T12:50:46;97847.38;;;25.68;42.21
76746;BME280;65671;49.976;20.038;2023-06-26T12:53:11;97843.66;;;25.09;44.28
76746;BME280;65671;49.976;20.038;2023-06-26T12:55:37;97849.66;;;25.02;44.05
76746;BME280;65671;49.976;20.038;2023-06-26T12:58:02;97840.13;;;25.87;42.03
76746;BME280;65671;49.976;20.038;2023-06-26T13:00:28;97840.38;;;26.54;38.63
76746;BME280;65671;49.976;20.038;2023-06-26T13:02:53;97836.06;;;26.58;37.98
76746;BME280;65671;49.976;20.038;2023-06-26T13:05:19;97836.56;;;26.46;39.89
76746;BME280;65671;49.976;20.038;2023-06-26T13:07:44;97829.31;;;27.21;43.34
76746;BME280;65671;49.976;20.038;2023-06-26T13:10:10;97831.81;;;27.46;44.22
76746;BME280;65671;49.976;20.038;2023-06-26T13:12:35;97834.31;;;26.55;44.47
76746;BME280;65671;49.976;20.038;2023-06-26T13:15:00;97835.81;;;25.86;44.25
76746;BME280;65671;49.976;20.038;2023-06-26T13:17:26;97829.75;;;26.47;47.03